createdAt,value
2023-05-05T00:01:33.195Z,99.70
2023-05-05T00:04:00.209Z,99.90
2023-05-05T00:06:28.669Z,99.70
2023-05-05T00:08:56.182Z,99.70
2023-05-05T00:11:23.174Z,99.90
2023-05-05T00:13:53.230Z,99.90
2023-05-05T00:16:20.229Z,99.90
2023-05-05T00:18:47.362Z,99.90
2023-05-05T00:21:14.349Z,99.90
2023-05-05T00:23:41.216Z,99.90
2023-05-05T00:26:08.090Z,99.90
2023-05-05T00:28:35.007Z,99.90
2023-05-05T00:31:02.279Z,99.90
2023-05-05T00:33:29.212Z,99.90
2023-05-05T00:35:56.130Z,99.90
2023-05-05T00:38:23.392Z,99.90
2023-05-05T00:40:50.496Z,99.90
2023-05-05T00:43:17.454Z,99.90
2023-05-05T00:45:47.613Z,99.90
2023-05-05T00:48:15.100Z,99.90
2023-05-05T00:50:44.495Z,99.90
2023-05-05T00:53:11.885Z,99.90
2023-05-05T00:55:38.822Z,99.90
2023-05-05T00:58:05.838Z,99.90
2023-05-05T01:00:37.017Z,99.90
2023-05-05T01:03:05.331Z,99.90
2023-05-05T01:05:44.936Z,99.90
2023-05-05T01:08:26.821Z,99.90
2023-05-05T01:10:58.754Z,99.90
2023-05-05T01:13:36.626Z,99.90
2023-05-05T01:16:20.876Z,99.90
2023-05-05T01:18:59.449Z,99.90
2023-05-05T01:21:32.677Z,99.90
2023-05-05T01:24:05.607Z,99.90
2023-05-05T01:26:51.194Z,99.90
2023-05-05T01:29:30.281Z,99.90
2023-05-05T01:32:07.999Z,99.90
2023-05-05T01:34:40.212Z,99.90
2023-05-05T01:37:41.618Z,99.90
2023-05-05T01:40:12.308Z,99.90
2023-05-05T01:42:43.599Z,99.90
2023-05-05T01:45:14.574Z,99.90
2023-05-05T01:47:43.001Z,99.90
2023-05-05T01:50:11.571Z,99.90
2023-05-05T01:52:40.148Z,99.90
2023-05-05T01:55:08.815Z,99.90
2023-05-05T01:57:37.220Z,99.90
2023-05-05T02:00:04.877Z,99.90
2023-05-05T02:02:33.552Z,99.90
2023-05-05T02:05:02.734Z,99.90
2023-05-05T02:07:33.335Z,99.90
2023-05-05T02:10:02.453Z,99.90
2023-05-05T02:12:31.665Z,99.90
2023-05-05T02:15:01.414Z,99.90
2023-05-05T02:17:30.322Z,99.90
2023-05-05T02:20:01.114Z,99.90
2023-05-05T02:22:28.452Z,99.90
2023-05-05T02:24:55.498Z,99.90
2023-05-05T02:27:24.280Z,99.90
2023-05-05T02:29:56.948Z,99.90
2023-05-05T02:32:40.331Z,99.90
2023-05-05T02:35:20.964Z,99.90
2023-05-05T02:37:56.145Z,99.90
2023-05-05T02:40:26.354Z,99.90
2023-05-05T02:42:54.629Z,99.90
2023-05-05T02:45:23.398Z,99.90
2023-05-05T02:47:52.884Z,99.90
2023-05-05T02:50:19.739Z,99.90
2023-05-05T02:52:46.983Z,99.90
2023-05-05T02:55:14.852Z,99.90
2023-05-05T02:57:48.770Z,99.90
2023-05-05T03:00:47.973Z,99.90
2023-05-05T03:04:06.354Z,99.90
2023-05-05T03:06:40.631Z,99.90
2023-05-05T03:09:15.758Z,99.90
2023-05-05T03:12:16.956Z,99.90
2023-05-05T03:14:45.964Z,99.90
2023-05-05T03:17:14.667Z,99.90
2023-05-05T03:19:44.201Z,99.90
2023-05-05T03:22:11.448Z,99.90
2023-05-05T03:24:38.336Z,99.90
2023-05-05T03:27:05.260Z,99.90
2023-05-05T03:29:32.169Z,99.90
2023-05-05T03:32:01.029Z,99.90
2023-05-05T03:34:28.033Z,99.90
2023-05-05T03:36:54.958Z,99.90
2023-05-05T03:39:21.825Z,99.90
2023-05-05T03:41:48.809Z,99.90
2023-05-05T03:44:15.725Z,99.90
2023-05-05T03:46:42.605Z,99.90
2023-05-05T03:49:09.853Z,99.90
2023-05-05T03:51:39.113Z,99.90
2023-05-05T03:54:06.276Z,99.90
2023-05-05T03:56:33.139Z,99.90
2023-05-05T03:59:00.013Z,99.90
2023-05-05T04:01:29.026Z,99.90
2023-05-05T04:03:56.450Z,99.90
2023-05-05T04:06:23.479Z,99.90
2023-05-05T04:08:50.467Z,99.90
2023-05-05T04:11:17.592Z,99.90
2023-05-05T04:13:44.541Z,99.90
2023-05-05T04:16:11.458Z,99.90
2023-05-05T04:18:38.557Z,99.90
2023-05-05T04:21:05.481Z,99.90
2023-05-05T04:23:32.356Z,99.90
2023-05-05T04:25:59.198Z,99.90
2023-05-05T04:28:26.121Z,99.90
2023-05-05T04:30:53.035Z,99.90
2023-05-05T04:33:20.016Z,99.90
2023-05-05T04:35:46.971Z,99.90
2023-05-05T04:38:13.797Z,99.90
2023-05-05T04:40:43.745Z,99.90
2023-05-05T04:43:10.744Z,99.90
2023-05-05T04:45:37.596Z,99.90
2023-05-05T04:48:05.341Z,99.90
2023-05-05T04:50:32.856Z,99.90
2023-05-05T04:52:59.659Z,99.90
2023-05-05T04:55:26.557Z,99.90
2023-05-05T04:57:53.816Z,99.90
2023-05-05T05:00:21.622Z,99.90
2023-05-05T05:02:48.624Z,99.90
2023-05-05T05:05:15.584Z,99.90
2023-05-05T05:07:42.441Z,99.90
2023-05-05T05:10:09.923Z,99.90
2023-05-05T05:12:37.236Z,99.90
2023-05-05T05:15:05.028Z,99.90
2023-05-05T05:17:31.920Z,99.90
2023-05-05T05:20:01.535Z,99.90
2023-05-05T05:22:28.447Z,99.90
2023-05-05T05:24:55.415Z,99.90
2023-05-05T05:27:22.293Z,99.90
2023-05-05T05:29:50.326Z,99.90
2023-05-05T05:32:17.192Z,99.90
2023-05-05T05:34:44.012Z,99.90
2023-05-05T05:37:11.039Z,99.90
2023-05-05T05:39:37.869Z,99.90
2023-05-05T05:42:04.784Z,99.90
2023-05-05T05:44:32.817Z,99.90
2023-05-05T05:46:59.731Z,99.90
2023-05-05T05:49:26.572Z,99.90
2023-05-05T05:51:53.432Z,99.90
2023-05-05T05:54:20.319Z,99.90
2023-05-05T05:56:47.160Z,99.90
2023-05-05T05:59:13.999Z,99.90
2023-05-05T06:01:41.244Z,99.90
2023-05-05T06:04:08.221Z,99.90
2023-05-05T06:06:35.217Z,99.90
2023-05-05T06:09:02.192Z,99.90
2023-05-05T06:11:29.127Z,99.90
2023-05-05T06:13:56.050Z,99.90
2023-05-05T06:16:23.009Z,99.90
2023-05-05T06:18:49.864Z,99.90
2023-05-05T06:21:16.848Z,99.90
2023-05-05T06:23:43.687Z,99.90
2023-05-05T06:26:10.752Z,99.90
2023-05-05T06:28:37.717Z,99.90
2023-05-05T06:31:04.692Z,99.90
2023-05-05T06:33:31.604Z,99.90
2023-05-05T06:35:58.571Z,99.90
2023-05-05T06:38:25.433Z,99.90
2023-05-05T06:40:52.309Z,99.90
2023-05-05T06:43:19.120Z,99.90
2023-05-05T06:45:46.065Z,99.90
2023-05-05T06:48:12.982Z,99.90
2023-05-05T06:50:39.856Z,99.90
2023-05-05T06:53:06.667Z,99.90
2023-05-05T06:55:33.552Z,99.90
2023-05-05T06:58:00.380Z,99.90
2023-05-05T07:00:27.372Z,99.90
2023-05-05T07:02:54.294Z,99.90
2023-05-05T07:05:21.319Z,99.90
2023-05-05T07:07:56.219Z,99.90
2023-05-05T07:10:24.576Z,99.90
2023-05-05T07:12:52.450Z,99.90
2023-05-05T07:15:27.469Z,99.90
2023-05-05T07:17:55.571Z,99.90
2023-05-05T07:20:22.531Z,99.90
2023-05-05T07:22:51.765Z,99.90
2023-05-05T07:25:18.818Z,99.90
2023-05-05T07:27:45.893Z,99.90
2023-05-05T07:30:16.302Z,99.90
2023-05-05T07:32:44.376Z,99.90
2023-05-05T07:35:11.399Z,99.90
2023-05-05T07:37:38.404Z,99.90
2023-05-05T07:40:06.183Z,99.90
2023-05-05T07:42:33.212Z,99.90
2023-05-05T07:45:00.022Z,99.90
2023-05-05T07:47:27.159Z,99.90
2023-05-05T07:49:54.692Z,99.90
2023-05-05T07:52:30.099Z,99.90
2023-05-05T07:55:04.956Z,99.90
2023-05-05T07:57:31.884Z,99.90
2023-05-05T07:59:58.735Z,99.90
2023-05-05T08:02:25.673Z,99.90
2023-05-05T08:04:52.546Z,99.90
2023-05-05T08:07:19.420Z,99.90
2023-05-05T08:09:46.272Z,99.90
2023-05-05T08:12:15.138Z,99.90
2023-05-05T08:14:42.623Z,99.90
2023-05-05T08:17:09.500Z,99.90
2023-05-05T08:19:39.108Z,99.90
2023-05-05T08:22:06.040Z,99.90
2023-05-05T08:24:32.875Z,99.90
2023-05-05T08:27:00.029Z,99.90
2023-05-05T08:29:26.950Z,99.90
2023-05-05T08:31:53.973Z,99.90
2023-05-05T08:34:21.269Z,99.90
2023-05-05T08:36:49.176Z,99.90
2023-05-05T08:39:18.824Z,99.90
2023-05-05T08:41:45.905Z,99.90
2023-05-05T08:44:12.848Z,99.90
2023-05-05T08:46:41.236Z,99.90
2023-05-05T08:49:13.903Z,99.90
2023-05-05T08:51:44.309Z,99.90
2023-05-05T08:54:17.787Z,99.90
2023-05-05T08:56:47.311Z,99.90
2023-05-05T08:59:15.668Z,99.90
2023-05-05T09:01:42.984Z,99.90
2023-05-05T09:04:10.919Z,99.90
2023-05-05T09:06:38.089Z,99.90
2023-05-05T09:09:05.081Z,99.90
2023-05-05T09:11:34.270Z,99.90
2023-05-05T09:14:01.847Z,99.90
2023-05-05T09:16:28.735Z,99.90
2023-05-05T09:19:13.584Z,99.90
2023-05-05T09:21:48.703Z,99.90
2023-05-05T09:24:15.718Z,99.90
2023-05-05T09:26:44.806Z,99.90
2023-05-05T09:29:22.210Z,99.90
2023-05-05T09:32:08.702Z,99.90
2023-05-05T09:34:36.577Z,99.90
2023-05-05T09:37:03.559Z,99.90
2023-05-05T09:39:30.522Z,99.90
2023-05-05T09:41:58.474Z,99.90
2023-05-05T09:44:39.178Z,99.90
2023-05-05T09:47:14.777Z,99.90
2023-05-05T09:49:58.621Z,99.90
2023-05-05T09:52:25.563Z,99.90
2023-05-05T09:54:57.038Z,99.90
2023-05-05T09:57:32.601Z,99.90
2023-05-05T10:00:01.635Z,99.90
2023-05-05T10:02:33.793Z,99.90
2023-05-05T10:05:19.214Z,99.90
2023-05-05T10:07:47.431Z,99.90
2023-05-05T10:10:16.386Z,99.90
2023-05-05T10:12:43.500Z,99.90
2023-05-05T10:15:12.001Z,99.90
2023-05-05T10:18:06.828Z,99.90
2023-05-05T10:20:41.072Z,99.90
2023-05-05T10:23:10.304Z,99.90
2023-05-05T10:25:40.087Z,99.90
2023-05-05T10:28:09.842Z,99.90
2023-05-05T10:30:46.076Z,99.90
2023-05-05T10:33:31.542Z,99.90
2023-05-05T10:36:02.494Z,99.90
2023-05-05T10:38:36.330Z,99.90
2023-05-05T10:41:03.853Z,99.90
2023-05-05T10:43:32.055Z,99.90
2023-05-05T10:45:59.678Z,99.90
2023-05-05T10:48:42.582Z,99.90
2023-05-05T10:51:39.209Z,99.90
2023-05-05T10:54:14.046Z,99.90
2023-05-05T10:56:42.131Z,99.10
2023-05-05T10:59:37.001Z,99.90
2023-05-05T11:02:23.586Z,99.90
2023-05-05T11:05:09.965Z,99.90
2023-05-05T11:07:37.882Z,99.50
2023-05-05T11:10:09.286Z,99.80
2023-05-05T11:12:59.274Z,99.20
2023-05-05T11:15:29.365Z,98.00
2023-05-05T11:18:06.692Z,98.30
2023-05-05T11:20:40.178Z,98.40
2023-05-05T11:23:07.149Z,98.80
2023-05-05T11:25:37.399Z,98.80
2023-05-05T11:28:23.161Z,98.80
2023-05-05T11:30:59.396Z,99.00
2023-05-05T11:33:28.934Z,98.30
2023-05-05T11:36:08.749Z,97.80
2023-05-05T11:38:53.445Z,97.50
2023-05-05T11:41:34.015Z,98.40
2023-05-05T11:44:14.185Z,98.80
2023-05-05T11:47:01.962Z,98.50
2023-05-05T11:49:30.485Z,99.00
2023-05-05T11:51:58.295Z,99.10
2023-05-05T11:54:26.146Z,99.70
2023-05-05T11:57:05.467Z,99.90
2023-05-05T11:59:33.669Z,99.90
2023-05-05T12:02:00.924Z,99.90
2023-05-05T12:04:27.827Z,99.90
2023-05-05T12:06:55.498Z,99.90
2023-05-05T12:09:23.818Z,99.90
2023-05-05T12:11:50.788Z,99.90
2023-05-05T12:14:17.678Z,99.90
2023-05-05T12:17:01.462Z,99.90
2023-05-05T12:19:32.869Z,99.90
2023-05-05T12:22:06.455Z,99.90
2023-05-05T12:24:33.406Z,99.90
2023-05-05T12:27:11.017Z,99.90
2023-05-05T12:29:38.189Z,99.90
2023-05-05T12:32:05.590Z,99.90
2023-05-05T12:34:32.936Z,99.90
2023-05-05T12:37:01.109Z,99.90
2023-05-05T12:39:37.318Z,99.90
2023-05-05T12:42:04.726Z,99.90
2023-05-05T12:44:38.571Z,99.90
2023-05-05T12:47:05.616Z,99.90
2023-05-05T12:49:34.210Z,99.90
2023-05-05T12:52:01.150Z,99.90
2023-05-05T12:54:29.828Z,99.90
2023-05-05T12:56:59.784Z,99.90
2023-05-05T12:59:27.477Z,99.90
2023-05-05T13:01:56.232Z,99.90
2023-05-05T13:04:25.679Z,99.90
2023-05-05T13:07:12.255Z,99.90
2023-05-05T13:09:39.479Z,99.90
2023-05-05T13:12:13.489Z,99.90
2023-05-05T13:14:40.980Z,99.90
2023-05-05T13:17:08.092Z,99.90
2023-05-05T13:19:35.899Z,99.90
2023-05-05T13:22:03.215Z,99.90
2023-05-05T13:24:46.685Z,99.90
2023-05-05T13:27:17.110Z,99.90
2023-05-05T13:29:44.085Z,99.90
2023-05-05T13:32:11.005Z,99.90
2023-05-05T13:34:39.261Z,99.90
2023-05-05T13:37:06.602Z,99.90
2023-05-05T13:39:33.641Z,99.90
2023-05-05T13:42:00.533Z,99.90
2023-05-05T13:44:27.371Z,99.90
2023-05-05T13:46:54.509Z,99.90
2023-05-05T13:49:21.414Z,99.90
2023-05-05T13:51:48.281Z,99.90
2023-05-05T13:54:15.187Z,99.90
2023-05-05T13:56:42.184Z,99.90
2023-05-05T13:59:09.246Z,99.90
2023-05-05T14:01:36.267Z,99.90
2023-05-05T14:04:05.400Z,99.90
2023-05-05T14:06:33.575Z,99.90
2023-05-05T14:09:00.660Z,99.90
2023-05-05T14:11:27.589Z,99.90
2023-05-05T14:13:54.510Z,99.90
2023-05-05T14:16:21.493Z,99.90
2023-05-05T14:18:48.431Z,99.90
2023-05-05T14:21:15.351Z,99.90
2023-05-05T14:23:42.240Z,99.90
2023-05-05T14:26:09.305Z,99.90
2023-05-05T14:28:39.319Z,99.90
2023-05-05T14:31:06.484Z,99.90
2023-05-05T14:33:33.491Z,99.90
2023-05-05T14:36:00.468Z,99.90
2023-05-05T14:38:27.479Z,99.90
2023-05-05T14:40:54.485Z,99.90
2023-05-05T14:43:21.894Z,99.90
2023-05-05T14:45:48.882Z,99.90
2023-05-05T14:48:15.898Z,99.90
2023-05-05T14:50:42.812Z,99.90
2023-05-05T14:53:09.696Z,99.90
2023-05-05T14:55:39.504Z,99.90
2023-05-05T14:58:06.352Z,99.90
2023-05-05T15:00:36.986Z,99.90
2023-05-05T15:03:32.180Z,99.90
2023-05-05T15:06:09.121Z,99.90
2023-05-05T15:08:35.932Z,99.90
2023-05-05T15:11:02.895Z,99.90
2023-05-05T15:13:30.211Z,99.90
2023-05-05T15:15:57.246Z,99.90
2023-05-05T15:18:24.198Z,99.90
2023-05-05T15:20:51.154Z,99.90
2023-05-05T15:23:18.090Z,99.90
2023-05-05T15:25:45.484Z,99.90
2023-05-05T15:28:12.495Z,99.90
2023-05-05T15:30:39.826Z,99.90
2023-05-05T15:33:06.682Z,99.90
2023-05-05T15:35:33.806Z,99.90
2023-05-05T15:38:00.707Z,99.90
2023-05-05T15:40:27.579Z,99.90
2023-05-05T15:42:54.464Z,99.90
2023-05-05T15:45:21.346Z,99.90
2023-05-05T15:47:48.290Z,99.90
2023-05-05T15:50:15.538Z,99.90
2023-05-05T15:52:42.771Z,99.90
2023-05-05T15:55:10.616Z,99.90
2023-05-05T15:57:39.820Z,99.90
2023-05-05T16:00:08.079Z,99.90
2023-05-05T16:02:34.974Z,99.90
2023-05-05T16:05:02.198Z,99.90
2023-05-05T16:07:29.096Z,99.90
2023-05-05T16:09:56.948Z,99.90
2023-05-05T16:12:25.517Z,99.90
2023-05-05T16:14:53.225Z,99.90
2023-05-05T16:17:21.630Z,99.90
2023-05-05T16:19:49.392Z,99.90
2023-05-05T16:22:16.278Z,99.90
2023-05-05T16:24:44.306Z,99.90
2023-05-05T16:27:11.520Z,99.90
2023-05-05T16:29:38.519Z,99.90
2023-05-05T16:32:06.143Z,99.80
2023-05-05T16:34:33.066Z,99.90
2023-05-05T16:36:59.991Z,99.90
2023-05-05T16:39:26.868Z,99.90
2023-05-05T16:41:53.755Z,99.90
2023-05-05T16:44:20.757Z,99.90
2023-05-05T16:46:47.620Z,99.30
2023-05-05T16:49:14.637Z,99.30
2023-05-05T16:51:41.606Z,98.80
2023-05-05T16:54:08.437Z,99.80
2023-05-05T16:56:35.344Z,98.90
2023-05-05T16:59:02.331Z,98.80
2023-05-05T17:01:29.361Z,98.40
2023-05-05T17:04:01.804Z,97.90
2023-05-05T17:06:34.847Z,96.70
2023-05-05T17:09:01.920Z,97.10
2023-05-05T17:11:28.851Z,96.90
2023-05-05T17:13:56.166Z,96.90
2023-05-05T17:16:23.037Z,96.90
2023-05-05T17:18:49.996Z,97.10
2023-05-05T17:21:16.872Z,97.10
2023-05-05T17:23:43.758Z,96.90
2023-05-05T17:26:12.154Z,97.10
2023-05-05T17:28:39.128Z,97.40
2023-05-05T17:31:06.083Z,97.50
2023-05-05T17:33:32.935Z,97.60
2023-05-05T17:35:59.782Z,97.70
2023-05-05T17:38:26.697Z,97.60
2023-05-05T17:40:53.604Z,97.70
2023-05-05T17:43:20.549Z,98.10
2023-05-05T17:45:47.553Z,98.60
2023-05-05T17:48:14.480Z,99.40
2023-05-05T17:50:43.205Z,99.90
2023-05-05T17:53:10.756Z,99.90
2023-05-05T17:55:37.723Z,99.90
2023-05-05T17:58:04.631Z,99.90
2023-05-05T18:00:31.555Z,99.90
2023-05-05T18:02:58.501Z,99.90
2023-05-05T18:05:25.598Z,99.90
2023-05-05T18:07:52.523Z,99.90
2023-05-05T18:10:19.446Z,99.90
2023-05-05T18:12:46.320Z,99.90
2023-05-05T18:15:13.369Z,99.90
2023-05-05T18:17:40.506Z,99.90
2023-05-05T18:20:08.127Z,99.90
2023-05-05T18:22:35.059Z,99.90
2023-05-05T18:25:01.963Z,99.90
2023-05-05T18:27:29.085Z,99.90
2023-05-05T18:29:55.945Z,99.90
2023-05-05T18:32:23.893Z,99.90
2023-05-05T18:34:50.910Z,99.90
2023-05-05T18:37:17.797Z,99.90
2023-05-05T18:39:45.162Z,99.90
2023-05-05T18:42:13.121Z,99.90
2023-05-05T18:44:40.266Z,99.90
2023-05-05T18:47:07.518Z,99.90
2023-05-05T18:49:35.133Z,99.90
2023-05-05T18:52:04.800Z,99.90
2023-05-05T18:54:31.694Z,99.90
2023-05-05T18:56:59.287Z,99.90
2023-05-05T18:59:26.336Z,99.90
2023-05-05T19:01:53.267Z,99.90
2023-05-05T19:04:30.638Z,99.90
2023-05-05T19:06:58.837Z,99.90
2023-05-05T19:09:25.922Z,99.90
2023-05-05T19:11:52.862Z,99.90
2023-05-05T19:14:19.754Z,99.90
2023-05-05T19:16:46.812Z,99.90
2023-05-05T19:19:13.799Z,99.90
2023-05-05T19:21:40.797Z,99.90
2023-05-05T19:24:10.785Z,99.90
2023-05-05T19:26:37.844Z,99.90
2023-05-05T19:29:04.774Z,99.90
2023-05-05T19:31:31.941Z,99.90
2023-05-05T19:34:01.651Z,99.90
2023-05-05T19:36:30.066Z,99.90
2023-05-05T19:38:57.081Z,99.90
2023-05-05T19:41:24.006Z,99.90
2023-05-05T19:43:50.957Z,99.90
2023-05-05T19:46:19.207Z,99.90
2023-05-05T19:48:46.293Z,99.90
2023-05-05T19:51:14.461Z,99.90
2023-05-05T19:53:42.916Z,99.90
2023-05-05T19:56:10.313Z,99.90
2023-05-05T19:58:58.907Z,99.90
2023-05-05T20:01:27.013Z,99.90
2023-05-05T20:03:56.139Z,99.90
2023-05-05T20:06:23.440Z,99.90
2023-05-05T20:08:54.738Z,99.90
2023-05-05T20:11:22.158Z,99.90
2023-05-05T20:13:50.850Z,99.90
2023-05-05T20:16:18.165Z,99.90
2023-05-05T20:18:45.237Z,99.90
2023-05-05T20:21:12.178Z,99.90
2023-05-05T20:23:39.053Z,99.90
2023-05-05T20:26:06.366Z,99.90
2023-05-05T20:28:33.296Z,99.90
2023-05-05T20:31:03.104Z,99.90
2023-05-05T20:33:30.050Z,99.90
2023-05-05T20:35:56.998Z,99.90
2023-05-05T20:38:24.001Z,99.90
2023-05-05T20:40:52.315Z,99.90
2023-05-05T20:43:19.660Z,99.90
2023-05-05T20:45:46.603Z,99.90
2023-05-05T20:48:13.488Z,99.90
2023-05-05T20:50:41.579Z,99.90
2023-05-05T20:53:09.708Z,99.90
2023-05-05T20:55:36.893Z,99.90
2023-05-05T20:58:05.213Z,99.90
2023-05-05T21:00:32.254Z,99.90
2023-05-05T21:02:59.552Z,99.90
2023-05-05T21:05:26.806Z,99.90
2023-05-05T21:07:54.336Z,99.90
2023-05-05T21:10:21.381Z,99.90
2023-05-05T21:12:48.273Z,99.90
2023-05-05T21:15:16.684Z,99.90
2023-05-05T21:17:43.685Z,99.90
2023-05-05T21:20:11.252Z,99.90
2023-05-05T21:22:38.418Z,99.90
2023-05-05T21:25:12.939Z,99.90
2023-05-05T21:27:39.872Z,99.90
2023-05-05T21:30:09.405Z,99.90
2023-05-05T21:32:39.849Z,99.90
2023-05-05T21:35:08.171Z,99.90
2023-05-05T21:37:39.359Z,99.90
2023-05-05T21:40:10.803Z,99.90
2023-05-05T21:42:39.757Z,99.90
2023-05-05T21:45:07.144Z,99.90
2023-05-05T21:47:36.072Z,99.90
2023-05-05T21:50:04.129Z,99.90
2023-05-05T21:52:31.146Z,99.90
2023-05-05T21:54:58.048Z,99.90
2023-05-05T21:57:24.989Z,99.90
2023-05-05T21:59:51.952Z,99.90
2023-05-05T22:02:18.860Z,99.90
2023-05-05T22:04:48.753Z,99.90
2023-05-05T22:07:15.823Z,99.90
2023-05-05T22:09:43.357Z,99.90
2023-05-05T22:12:10.305Z,99.90
2023-05-05T22:14:37.254Z,99.90
2023-05-05T22:17:04.261Z,99.90
2023-05-05T22:19:31.122Z,99.90
2023-05-05T22:21:58.907Z,99.90
2023-05-05T22:24:25.858Z,99.90
2023-05-05T22:26:53.690Z,99.90
2023-05-05T22:29:20.665Z,99.90
2023-05-05T22:31:47.641Z,99.90
2023-05-05T22:34:15.102Z,99.90
2023-05-05T22:36:42.248Z,99.90
2023-05-05T22:39:09.186Z,99.90
2023-05-05T22:41:36.282Z,99.90
2023-05-05T22:44:03.158Z,99.90
2023-05-05T22:46:30.397Z,99.90
2023-05-05T22:48:57.344Z,99.90
2023-05-05T22:51:24.155Z,99.90
2023-05-05T22:53:51.157Z,99.90
2023-05-05T22:56:18.071Z,99.90
2023-05-05T22:58:46.550Z,99.90
2023-05-05T23:01:13.539Z,99.90
2023-05-05T23:03:40.481Z,99.90
2023-05-05T23:06:07.658Z,99.90
2023-05-05T23:08:34.570Z,99.90
2023-05-05T23:11:01.416Z,99.90
2023-05-05T23:13:28.285Z,99.90
2023-05-05T23:15:55.327Z,99.90
2023-05-05T23:18:22.188Z,99.90
2023-05-05T23:20:49.083Z,99.90
2023-05-05T23:23:16.013Z,99.90
2023-05-05T23:25:42.919Z,99.90
2023-05-05T23:28:10.081Z,99.90
2023-05-05T23:30:40.865Z,99.90
2023-05-05T23:33:07.866Z,99.90
2023-05-05T23:35:34.779Z,99.90
2023-05-05T23:38:01.793Z,99.90
2023-05-05T23:40:28.642Z,99.90
2023-05-05T23:42:55.573Z,99.90
2023-05-05T23:45:22.461Z,99.90
2023-05-05T23:47:51.757Z,99.90
2023-05-05T23:50:18.607Z,99.90
2023-05-05T23:52:45.730Z,99.90
2023-05-05T23:55:12.673Z,99.90
2023-05-05T23:57:39.528Z,99.90
